Green Hall, Kentucky
Current Conditions -  °F | °C
As of 10:53 AM on Sunday 21 Dec 2014 (Local Time) from KJKL Reporting Station
Clear Clear  
Wind Chill: 33°   Ceiling: Unl
Heat Index: 33°   Visibility: 10mi
Dew Point: 26°   Wind: 3mph
Humidity: 75%   Direction: NA
Pressure: 30.27"   Gusts: NA
Location:  37.4818°N, 83.6652°W
Report Text: KJKL 211553Z AUTO VRB03KT 10SM CLR 01/M03 A3027 RMK AO2 SLP261 T00061033
Loading
Personal Weather Stations






























Interactive Weather Map New forecast layout! Learn more

10-Day Weather Forecast

Advertisements
Track Severe Weather on mobile